Time;durP1;ratioP1;P1;durP2;ratioP2;P2;SDS_P1;SDS_P2;PMS_P1;PMS_P2;Temp;Humidity;BMP_temperature;BMP_pressure;BME280_temperature;BME280_humidity;BME280_pressure;Samples;Min_cycle;Max_cycle;Signal;HPM_P1;HPM_P2
2022/03/08 00:00:11;;;;;;;53.13;26.33;;;;;;;-0.12;100.00;94468.78;5053343;28;20205;-77
2022/03/08 00:02:39;;;;;;;42.57;24.17;;;;;;;0.02;100.00;94467.34;5047199;28;20195;-78
2022/03/08 00:05:09;;;;;;;50.50;26.10;;;;;;;0.07;100.00;94462.56;5046579;28;20211;-77
2022/03/08 00:07:39;;;;;;;45.60;23.03;;;;;;;-0.06;100.00;94468.16;5048117;28;20211;-77
2022/03/08 00:10:09;;;;;;;41.67;23.47;;;;;;;-0.09;100.00;94459.03;5053245;28;20198;-77
2022/03/08 00:12:38;;;;;;;41.63;23.07;;;;;;;-0.32;100.00;94464.91;5054435;28;20233;-77
2022/03/08 00:15:29;;;;;;;40.13;22.80;;;;;;;-0.40;100.00;94463.13;5054179;28;20756;-77
2022/03/08 00:17:57;;;;;;;36.23;20.10;;;;;;;-0.42;100.00;94456.59;5035310;28;20201;-78
2022/03/08 00:20:25;;;;;;;34.10;18.17;;;;;;;-0.37;100.00;94467.13;5047343;28;20198;-78
2022/03/08 00:22:54;;;;;;;30.37;17.33;;;;;;;-0.35;100.00;94471.13;5051831;28;20202;-77
2022/03/08 00:25:22;;;;;;;28.43;16.30;;;;;;;-0.34;100.00;94469.34;5052167;28;20591;-80
2022/03/08 00:27:51;;;;;;;28.37;16.30;;;;;;;-0.30;100.00;94466.34;5052873;28;20658;-79
2022/03/08 00:30:23;;;;;;;27.97;16.83;;;;;;;-0.25;100.00;94464.13;5052778;28;20202;-83
2022/03/08 00:32:53;;;;;;;30.73;17.67;;;;;;;-0.13;100.00;94460.31;5052712;28;20705;-78
2022/03/08 00:35:22;;;;;;;27.10;16.47;;;;;;;0.04;100.00;94470.53;5052555;28;20643;-79
2022/03/08 00:37:52;;;;;;;30.70;16.97;;;;;;;0.02;100.00;94463.03;5052397;28;20300;-80
2022/03/08 00:40:22;;;;;;;30.00;18.10;;;;;;;0.07;100.00;94467.66;5052517;28;20210;-79
2022/03/08 00:42:51;;;;;;;31.47;18.00;;;;;;;0.12;100.00;94465.44;5052567;28;20228;-80
2022/03/08 00:45:21;;;;;;;29.73;17.40;;;;;;;0.12;100.00;94456.00;5051997;28;20202;-79
2022/03/08 00:47:50;;;;;;;31.67;17.87;;;;;;;0.12;100.00;94445.78;5052272;28;20549;-80
2022/03/08 00:50:21;;;;;;;32.20;18.47;;;;;;;0.27;100.00;94464.66;5051765;28;20202;-79
2022/03/08 00:52:54;;;;;;;35.13;18.63;;;;;;;0.28;100.00;94456.03;5045042;28;20764;-80
2022/03/08 00:55:23;;;;;;;32.87;18.27;;;;;;;0.30;100.00;94464.31;5052431;28;20209;-78
2022/03/08 00:57:54;;;;;;;33.13;18.10;;;;;;;0.35;100.00;94461.28;5051979;28;20260;-79
2022/03/08 01:00:25;;;;;;;31.80;18.60;;;;;;;0.07;100.00;94460.81;5032016;28;20671;-79
2022/03/08 01:02:54;;;;;;;35.07;19.13;;;;;;;-0.03;100.00;94455.84;5035847;28;20198;-80
2022/03/08 01:05:22;;;;;;;30.00;17.20;;;;;;;-0.20;100.00;94458.53;5051599;28;20281;-79
2022/03/08 01:07:53;;;;;;;31.93;18.27;;;;;;;-0.23;100.00;94454.53;5052066;28;20224;-78
2022/03/08 01:10:23;;;;;;;34.40;19.27;;;;;;;-0.19;100.00;94457.59;5051883;28;20248;-79
2022/03/08 01:12:53;;;;;;;32.07;17.83;;;;;;;-0.20;100.00;94461.88;5050891;28;20237;-79
2022/03/08 01:15:23;;;;;;;28.57;17.13;;;;;;;-0.13;100.00;94451.84;5050066;28;20198;-79
2022/03/08 01:17:54;;;;;;;31.00;18.03;;;;;;;0.02;100.00;94452.03;5040336;28;20289;-79
2022/03/08 01:20:23;;;;;;;27.63;16.67;;;;;;;0.08;100.00;94457.31;5051101;28;20787;-78
2022/03/08 01:22:52;;;;;;;30.10;17.37;;;;;;;0.17;100.00;94453.81;5051273;28;20668;-79
2022/03/08 01:25:22;;;;;;;27.17;16.13;;;;;;;0.17;100.00;94453.00;5048561;28;20194;-79
2022/03/08 01:27:51;;;;;;;26.53;15.70;;;;;;;0.17;100.00;94447.88;5047022;28;20271;-82
2022/03/08 01:30:22;;;;;;;29.13;16.63;;;;;;;0.24;100.00;94448.81;5047179;28;20203;-81
2022/03/08 01:32:50;;;;;;;28.40;17.00;;;;;;;0.16;100.00;94449.63;5048020;28;20210;-79
2022/03/08 01:35:20;;;;;;;28.73;17.07;;;;;;;0.17;100.00;94451.25;5051161;28;20204;-79
2022/03/08 01:37:50;;;;;;;29.23;16.57;;;;;;;0.25;100.00;94458.09;5051210;28;20202;-79
2022/03/08 01:40:20;;;;;;;26.47;15.40;;;;;;;0.37;100.00;94449.16;5047395;28;20297;-79
2022/03/08 01:42:50;;;;;;;33.93;18.80;;;;;;;0.49;100.00;94447.88;5050904;28;20282;-79
2022/03/08 01:45:22;;;;;;;35.77;20.70;;;;;;;0.42;100.00;94441.81;5051844;28;20523;-79
2022/03/08 01:47:50;;;;;;;33.47;20.10;;;;;;;0.38;100.00;94445.63;5051407;28;20661;-79
2022/03/08 01:50:20;;;;;;;29.37;17.23;;;;;;;0.18;100.00;94452.03;5050419;28;20206;-78
2022/03/08 01:52:49;;;;;;;29.63;17.40;;;;;;;0.18;100.00;94446.91;5051211;28;20225;-79
2022/03/08 01:55:19;;;;;;;31.00;17.30;;;;;;;0.25;100.00;94446.13;5050511;28;20260;-80
2022/03/08 01:57:48;;;;;;;36.13;18.80;;;;;;;0.30;100.00;94450.75;5050792;28;20209;-79
2022/03/08 02:00:19;;;;;;;39.80;18.07;;;;;;;0.26;100.00;94445.16;5051175;28;20820;-79
2022/03/08 02:02:48;;;;;;;30.87;17.27;;;;;;;0.36;100.00;94442.44;5044219;28;20198;-79
2022/03/08 02:05:16;;;;;;;30.30;16.63;;;;;;;0.43;100.00;94439.06;5038000;28;20199;-79
2022/03/08 02:07:46;;;;;;;33.03;17.87;;;;;;;0.37;100.00;94439.75;5044755;28;20308;-80
2022/03/08 02:10:14;;;;;;;30.53;17.53;;;;;;;0.50;100.00;94434.13;5051020;28;20202;-80
2022/03/08 02:12:43;;;;;;;32.10;18.47;;;;;;;0.46;100.00;94436.19;5050826;28;20321;-78
2022/03/08 02:15:16;;;;;;;30.30;17.40;;;;;;;0.53;100.00;94446.56;5051300;28;20196;-78
2022/03/08 02:17:45;;;;;;;32.30;18.53;;;;;;;0.38;100.00;94445.63;5051610;28;20206;-80
2022/03/08 02:20:14;;;;;;;32.77;19.00;;;;;;;0.23;100.00;94445.47;5051135;28;20293;-78
2022/03/08 02:22:45;;;;;;;32.53;18.23;;;;;;;0.23;100.00;94453.13;5050718;28;20194;-79
2022/03/08 02:25:14;;;;;;;31.53;17.67;;;;;;;0.20;100.00;94447.56;5050789;28;20599;-78
2022/03/08 02:27:43;;;;;;;34.13;18.93;;;;;;;0.17;100.00;94453.00;5050554;28;20236;-78
2022/03/08 02:30:12;;;;;;;35.50;19.00;;;;;;;-0.05;100.00;94455.22;5050494;28;20199;-77
2022/03/08 02:32:40;;;;;;;32.60;18.43;;;;;;;-0.09;100.00;94451.38;5050390;28;20225;-79
2022/03/08 02:35:11;;;;;;;38.07;20.03;;;;;;;-0.09;100.00;94453.91;5050682;28;20206;-78
2022/03/08 02:37:41;;;;;;;38.27;20.07;;;;;;;-0.07;100.00;94446.91;5043688;28;20696;-79
2022/03/08 02:40:14;;;;;;;39.33;19.80;;;;;;;0.06;100.00;94456.66;5051054;28;20194;-79
2022/03/08 02:42:43;;;;;;;43.70;21.47;;;;;;;0.04;100.00;94462.88;5050578;28;20198;-78
2022/03/08 02:45:12;;;;;;;44.63;21.40;;;;;;;0.04;100.00;94465.44;5050527;28;20267;-77
2022/03/08 02:47:41;;;;;;;45.97;22.17;;;;;;;0.00;100.00;94452.97;5050520;28;20202;-79
2022/03/08 02:50:10;;;;;;;39.20;20.73;;;;;;;0.05;100.00;94464.47;5049624;28;20198;-78
2022/03/08 02:52:39;;;;;;;37.83;20.70;;;;;;;0.11;100.00;94464.66;5049755;28;20210;-78
2022/03/08 02:55:08;;;;;;;37.10;20.00;;;;;;;0.15;100.00;94472.78;5031161;28;20199;-80
2022/03/08 02:57:38;;;;;;;35.17;19.53;;;;;;;0.18;100.00;94473.25;5048119;28;20214;-79
2022/03/08 03:00:08;;;;;;;41.03;21.30;;;;;;;0.20;100.00;94471.38;5050853;28;20198;-80
2022/03/08 03:02:36;;;;;;;36.30;20.13;;;;;;;0.27;100.00;94479.16;5053935;28;20200;-79
2022/03/08 03:05:04;;;;;;;36.03;18.67;;;;;;;0.29;100.00;94477.28;5054242;28;20303;-79
2022/03/08 03:07:32;;;;;;;35.60;19.20;;;;;;;0.31;100.00;94481.25;5054324;28;20684;-80
2022/03/08 03:10:00;;;;;;;30.97;17.97;;;;;;;0.35;100.00;94484.28;5054486;28;20241;-80
2022/03/08 03:12:29;;;;;;;33.90;18.83;;;;;;;0.24;100.00;94482.84;5054256;28;20204;-80
2022/03/08 03:14:57;;;;;;;34.90;19.07;;;;;;;0.26;100.00;94482.69;5054279;28;20256;-81
2022/03/08 03:17:25;;;;;;;34.63;19.33;;;;;;;0.28;100.00;94479.03;5053394;28;20856;-79
2022/03/08 03:19:53;;;;;;;36.20;19.97;;;;;;;0.30;100.00;94483.97;5053220;28;20288;-81
2022/03/08 03:22:20;;;;;;;34.73;19.90;;;;;;;0.24;100.00;94475.19;5053599;28;20234;-81
2022/03/08 03:24:48;;;;;;;34.60;19.33;;;;;;;0.30;100.00;94494.19;5052110;28;20268;-77
2022/03/08 03:27:15;;;;;;;35.67;19.70;;;;;;;0.29;100.00;94483.16;5046280;28;20212;-78
2022/03/08 03:29:44;;;;;;;41.47;21.27;;;;;;;0.31;100.00;94491.47;5046238;28;20688;-78
2022/03/08 03:32:14;;;;;;;36.70;19.57;;;;;;;0.34;100.00;94493.72;5050842;28;20238;-78
2022/03/08 03:34:43;;;;;;;39.50;22.27;;;;;;;0.42;100.00;94495.47;5052011;28;20766;-77
2022/03/08 03:37:11;;;;;;;37.60;20.17;;;;;;;0.44;100.00;94488.44;5051908;28;20211;-77
2022/03/08 03:39:39;;;;;;;33.87;19.30;;;;;;;0.46;100.00;94489.84;5045507;28;20208;-77
2022/03/08 03:42:21;;;;;;;33.13;17.97;;;;;;;0.50;100.00;94493.69;5052217;28;20215;-77
2022/03/08 03:44:50;;;;;;;32.50;17.93;;;;;;;0.56;100.00;94492.25;5051928;28;20206;-77
2022/03/08 03:47:20;;;;;;;33.63;17.60;;;;;;;0.56;100.00;94485.41;5052284;28;20207;-76
2022/03/08 03:49:53;;;;;;;33.13;19.00;;;;;;;0.58;100.00;94490.31;5052384;28;20207;-77
2022/03/08 03:52:22;;;;;;;32.73;18.63;;;;;;;0.65;100.00;94493.06;5052247;28;20291;-76
2022/03/08 03:54:51;;;;;;;35.57;19.53;;;;;;;0.65;100.00;94488.75;5051326;28;20224;-76
2022/03/08 03:57:23;;;;;;;33.53;18.63;;;;;;;0.65;100.00;94493.84;5051674;28;20202;-78
2022/03/08 03:59:51;;;;;;;32.50;19.00;;;;;;;0.61;100.00;94487.47;5045510;28;20204;-78
2022/03/08 04:02:21;;;;;;;34.93;19.57;;;;;;;0.61;100.00;94482.34;5050947;28;20205;-78
2022/03/08 04:04:48;;;;;;;34.47;19.97;;;;;;;0.66;100.00;94492.09;5051502;28;20893;-77
2022/03/08 04:07:17;;;;;;;38.80;20.50;;;;;;;0.60;100.00;94492.75;5044725;28;20214;-77
2022/03/08 04:09:45;;;;;;;39.57;22.63;;;;;;;0.64;100.00;94486.34;5051335;28;20285;-77
2022/03/08 04:12:15;;;;;;;43.63;23.40;;;;;;;0.70;100.00;94493.34;5051161;28;20202;-79
2022/03/08 04:14:43;;;;;;;44.07;23.70;;;;;;;0.71;100.00;94497.53;5052718;28;20245;-80
2022/03/08 04:17:12;;;;;;;44.80;24.47;;;;;;;0.67;100.00;94493.69;5052137;28;20202;-80
2022/03/08 04:19:42;;;;;;;47.23;26.27;;;;;;;0.65;100.00;94504.06;5051896;28;20257;-80
2022/03/08 04:22:11;;;;;;;48.97;25.37;;;;;;;0.67;100.00;94491.91;5052424;28;20232;-80
2022/03/08 04:24:39;;;;;;;51.97;28.30;;;;;;;0.63;100.00;94495.78;5052270;28;20199;-79
2022/03/08 04:27:07;;;;;;;47.57;26.70;;;;;;;0.63;100.00;94489.88;5052932;28;20238;-79
2022/03/08 04:29:36;;;;;;;53.30;27.37;;;;;;;0.63;100.00;94490.66;5052823;28;20617;-80
2022/03/08 04:32:05;;;;;;;54.70;28.63;;;;;;;0.60;100.00;94485.06;5052832;28;20234;-79
2022/03/08 04:34:33;;;;;;;53.87;27.57;;;;;;;0.57;100.00;94487.00;5052187;28;20231;-79
2022/03/08 04:37:03;;;;;;;51.40;27.37;;;;;;;0.45;100.00;94469.59;5052204;28;20234;-79
2022/03/08 04:39:31;;;;;;;58.90;29.87;;;;;;;0.52;100.00;94493.53;5040403;28;20278;-79
2022/03/08 04:42:00;;;;;;;51.70;28.70;;;;;;;0.34;100.00;94485.25;5044316;28;20204;-80
2022/03/08 04:44:28;;;;;;;54.47;28.37;;;;;;;0.24;100.00;94484.59;5052249;28;20281;-80
2022/03/08 04:46:56;;;;;;;47.00;25.53;;;;;;;-0.03;100.00;94483.16;5052097;28;20665;-80
2022/03/08 04:49:25;;;;;;;48.03;27.13;;;;;;;-0.10;100.00;94482.19;5051102;28;20697;-72
2022/03/08 04:51:53;;;;;;;51.60;27.13;;;;;;;-0.13;100.00;94478.19;5050699;28;20301;-71
2022/03/08 04:54:23;;;;;;;49.60;27.70;;;;;;;-0.15;100.00;94484.41;5050532;28;20222;-71
2022/03/08 04:56:51;;;;;;;46.47;26.00;;;;;;;-0.23;100.00;94487.72;5050612;28;20209;-73
2022/03/08 04:59:18;;;;;;;49.00;26.33;;;;;;;-0.25;100.00;94487.09;5034298;28;20205;-73
2022/03/08 05:01:46;;;;;;;50.40;26.17;;;;;;;-0.15;100.00;94485.22;5049759;28;20261;-71
2022/03/08 05:04:15;;;;;;;51.07;26.30;;;;;;;-0.33;100.00;94488.84;5048954;28;20204;-72
2022/03/08 05:06:43;;;;;;;51.17;25.73;;;;;;;-0.28;100.00;94482.31;5049255;28;20234;-72
2022/03/08 05:09:11;;;;;;;44.60;24.00;;;;;;;-0.24;100.00;94485.34;5048998;28;20194;-72
2022/03/08 05:11:42;;;;;;;50.50;26.33;;;;;;;-0.17;100.00;94488.84;5048718;28;20202;-72
2022/03/08 05:14:09;;;;;;;51.00;25.80;;;;;;;-0.22;100.00;94489.34;5048995;28;20590;-73
2022/03/08 05:16:38;;;;;;;53.13;27.37;;;;;;;-0.23;100.00;94487.72;5049387;28;20202;-73
2022/03/08 05:19:06;;;;;;;53.97;25.37;;;;;;;-0.27;100.00;94478.00;5049688;28;20626;-71
2022/03/08 05:21:34;;;;;;;47.17;24.90;;;;;;;-0.21;100.00;94488.41;5049192;28;20198;-72
2022/03/08 05:24:02;;;;;;;43.07;22.57;;;;;;;-0.26;100.00;94489.81;5049057;28;20201;-71
2022/03/08 05:26:30;;;;;;;51.60;24.27;;;;;;;-0.43;100.00;94485.63;5049602;28;20721;-72
2022/03/08 05:28:59;;;;;;;47.20;23.77;;;;;;;-0.43;100.00;94483.84;5049449;28;20289;-72
2022/03/08 05:31:26;;;;;;;45.23;22.83;;;;;;;-0.48;100.00;94483.53;5049642;28;20293;-72
2022/03/08 05:33:54;;;;;;;49.70;25.60;;;;;;;-0.55;100.00;94482.56;5049761;28;20312;-73
2022/03/08 05:36:22;;;;;;;50.93;24.10;;;;;;;-0.54;100.00;94483.34;5043079;28;20637;-73
2022/03/08 05:38:51;;;;;;;50.07;24.73;;;;;;;-0.60;100.00;94489.88;5042466;28;20217;-72
2022/03/08 05:41:20;;;;;;;53.13;25.90;;;;;;;-0.50;100.00;94484.63;5042995;28;20260;-72
2022/03/08 05:43:48;;;;;;;53.50;26.43;;;;;;;-0.35;100.00;94494.09;5048978;28;20205;-72
2022/03/08 05:46:18;;;;;;;56.00;26.47;;;;;;;-0.26;100.00;94482.94;5048164;28;20208;-72
2022/03/08 05:48:46;;;;;;;52.37;25.90;;;;;;;-0.22;100.00;94489.34;5048779;28;20212;-73
2022/03/08 05:51:15;;;;;;;50.27;25.77;;;;;;;-0.22;100.00;94491.09;5048427;28;20712;-73
2022/03/08 05:53:43;;;;;;;53.10;26.40;;;;;;;-0.21;100.00;94490.94;5049019;28;20232;-72
2022/03/08 05:56:12;;;;;;;48.53;25.60;;;;;;;-0.10;100.00;94500.84;5047969;28;20201;-73
2022/03/08 05:58:39;;;;;;;49.53;24.90;;;;;;;-0.09;100.00;94501.66;5048894;28;20206;-72
2022/03/08 06:01:08;;;;;;;51.20;25.93;;;;;;;-0.09;100.00;94501.66;5049312;28;20202;-72
2022/03/08 06:03:37;;;;;;;52.17;25.60;;;;;;;-0.18;100.00;94494.94;5048984;28;20209;-72
2022/03/08 06:06:05;;;;;;;46.17;24.17;;;;;;;-0.11;100.00;94498.44;5048779;28;20205;-72
2022/03/08 06:08:33;;;;;;;49.17;25.10;;;;;;;-0.02;100.00;94495.75;5049546;28;20660;-72
2022/03/08 06:11:01;;;;;;;49.60;25.40;;;;;;;-0.03;100.00;94498.47;5048345;28;20569;-73
2022/03/08 06:13:29;;;;;;;50.60;24.80;;;;;;;-0.01;100.00;94506.78;5048381;28;20237;-74
2022/03/08 06:15:57;;;;;;;47.73;24.13;;;;;;;0.06;100.00;94500.06;5048778;28;20199;-73
2022/03/08 06:18:25;;;;;;;49.07;24.23;;;;;;;0.11;100.00;94507.28;5049007;28;20657;-72
2022/03/08 06:20:54;;;;;;;52.13;26.00;;;;;;;0.14;100.00;94507.75;5047879;28;20206;-72
2022/03/08 06:23:22;;;;;;;42.20;22.70;;;;;;;0.20;100.00;94509.69;5046331;28;20200;-73
2022/03/08 06:25:50;;;;;;;38.80;21.77;;;;;;;0.18;100.00;94509.03;5048812;28;20198;-74
2022/03/08 06:28:19;;;;;;;38.00;21.00;;;;;;;0.22;100.00;94502.66;5048539;28;20203;-72
2022/03/08 06:30:48;;;;;;;37.33;20.80;;;;;;;0.27;100.00;94515.75;5048474;28;20215;-71
2022/03/08 06:33:15;;;;;;;40.57;21.73;;;;;;;0.37;100.00;94516.41;5048564;28;20210;-72
2022/03/08 06:35:44;;;;;;;41.70;23.10;;;;;;;0.43;100.00;94517.50;5049855;28;20575;-71
2022/03/08 06:38:14;;;;;;;37.40;21.60;;;;;;;0.28;100.00;94512.25;5052108;28;20210;-75
2022/03/08 06:40:42;;;;;;;41.73;22.03;;;;;;;0.21;100.00;94518.94;5052484;28;20198;-76
2022/03/08 06:43:11;;;;;;;35.33;20.03;;;;;;;0.15;100.00;94529.78;5052223;28;20267;-76
2022/03/08 06:45:39;;;;;;;36.53;21.00;;;;;;;0.16;100.00;94517.81;5051956;28;20259;-75
2022/03/08 06:48:09;;;;;;;40.63;22.93;;;;;;;0.31;100.00;94519.59;5052724;28;20198;-78
2022/03/08 06:50:38;;;;;;;43.37;23.03;;;;;;;0.38;100.00;94527.41;5052662;28;20577;-76
2022/03/08 06:53:07;;;;;;;40.53;22.00;;;;;;;0.47;100.00;94526.44;5052302;28;20204;-70
2022/03/08 06:55:42;;;;;;;41.03;22.57;;;;;;;0.39;100.00;94524.69;5051297;28;20338;-71
2022/03/08 06:58:10;;;;;;;38.03;20.93;;;;;;;0.42;100.00;94521.81;5051387;28;20292;-70
2022/03/08 07:00:38;;;;;;;39.07;21.80;;;;;;;0.50;100.00;94529.47;5051859;28;20215;-70
2022/03/08 07:03:06;;;;;;;36.67;19.50;;;;;;;0.46;100.00;94530.75;5052293;28;20293;-70
2022/03/08 07:05:33;;;;;;;40.07;21.73;;;;;;;0.38;100.00;94528.19;5052130;28;20210;-71
2022/03/08 07:08:02;;;;;;;33.13;19.10;;;;;;;0.32;100.00;94528.84;5052560;28;20252;-71
2022/03/08 07:10:30;;;;;;;34.40;19.83;;;;;;;0.43;100.00;94528.50;5050840;28;20206;-72
2022/03/08 07:13:01;;;;;;;34.67;19.17;;;;;;;0.53;100.00;94530.91;5050821;28;20696;-71
2022/03/08 07:15:30;;;;;;;34.13;20.57;;;;;;;0.55;100.00;94529.00;5051686;28;20211;-71
2022/03/08 07:17:58;;;;;;;35.23;19.83;;;;;;;0.55;100.00;94526.44;5051352;28;20324;-71
2022/03/08 07:20:27;;;;;;;37.63;20.00;;;;;;;0.55;100.00;94529.78;5050009;28;21086;-71
2022/03/08 07:22:54;;;;;;;35.23;19.37;;;;;;;0.53;100.00;94530.91;5050833;28;20204;-71
2022/03/08 07:25:21;;;;;;;37.73;20.87;;;;;;;0.65;100.00;94531.41;5050574;28;20256;-71
2022/03/08 07:27:50;;;;;;;36.90;20.40;;;;;;;0.64;100.00;94540.00;5050466;28;20211;-70
2022/03/08 07:30:20;;;;;;;32.27;17.87;;;;;;;0.65;100.00;94531.41;5050159;28;20247;-71
2022/03/08 07:32:51;;;;;;;31.30;17.77;;;;;;;0.70;100.00;94536.81;5050113;28;20640;-73
2022/03/08 07:35:19;;;;;;;31.47;17.87;;;;;;;0.78;100.00;94534.28;5050569;28;20214;-74
2022/03/08 07:37:46;;;;;;;35.27;19.97;;;;;;;0.75;100.00;94532.81;5051463;28;20312;-74
2022/03/08 07:40:14;;;;;;;31.33;17.53;;;;;;;0.57;100.00;94527.09;5050766;28;20207;-74
2022/03/08 07:42:42;;;;;;;28.07;17.03;;;;;;;0.52;100.00;94527.56;5050019;28;20202;-74
2022/03/08 07:45:11;;;;;;;31.77;17.63;;;;;;;0.57;100.00;94530.47;5049627;28;20200;-73
2022/03/08 07:47:41;;;;;;;32.23;18.67;;;;;;;0.64;100.00;94533.16;5048302;28;20287;-76
2022/03/08 07:50:10;;;;;;;33.73;18.47;;;;;;;0.61;100.00;94528.34;5049815;28;20290;-74
2022/03/08 07:52:38;;;;;;;34.00;19.37;;;;;;;0.54;100.00;94530.78;5049291;28;20204;-74
2022/03/08 07:55:07;;;;;;;38.87;20.63;;;;;;;0.67;100.00;94532.03;5049951;28;20317;-75
2022/03/08 07:57:35;;;;;;;38.10;21.03;;;;;;;0.60;100.00;94536.19;5050428;28;20250;-76
2022/03/08 08:00:06;;;;;;;37.87;20.43;;;;;;;0.57;100.00;94527.09;5050390;28;20224;-76
2022/03/08 08:02:34;;;;;;;35.57;19.23;;;;;;;0.57;100.00;94527.09;5050155;28;20202;-76
2022/03/08 08:05:04;;;;;;;34.50;18.67;;;;;;;0.54;100.00;94528.22;5048845;28;20194;-75
2022/03/08 08:07:32;;;;;;;35.83;19.00;;;;;;;0.55;100.00;94534.09;5049837;28;20216;-75
2022/03/08 08:10:01;;;;;;;36.80;19.93;;;;;;;0.52;100.00;94527.56;5049902;28;20217;-75
2022/03/08 08:12:28;;;;;;;35.97;19.20;;;;;;;0.57;100.00;94530.47;5049881;28;20200;-75
2022/03/08 08:14:56;;;;;;;37.67;20.67;;;;;;;0.66;100.00;94526.13;5047564;28;20210;-76
2022/03/08 08:17:24;;;;;;;51.87;25.67;;;;;;;0.60;100.00;94526.78;5049990;28;20199;-75
2022/03/08 08:19:52;;;;;;;51.50;26.73;;;;;;;0.80;100.00;94525.47;5050735;28;20309;-76
2022/03/08 08:22:21;;;;;;;45.43;25.53;;;;;;;0.83;100.00;94535.38;5049157;28;20213;-76
2022/03/08 08:24:49;;;;;;;40.27;21.33;;;;;;;0.76;100.00;94542.09;5049847;28;20311;-76
2022/03/08 08:27:17;;;;;;;41.30;21.73;;;;;;;0.75;100.00;94535.38;5049724;28;20574;-76
2022/03/08 08:29:45;;;;;;;40.47;22.13;;;;;;;0.78;100.00;94524.81;5049883;28;20205;-77
2022/03/08 08:32:13;;;;;;;42.70;22.93;;;;;;;0.66;100.00;94536.38;5050145;28;20202;-76
2022/03/08 08:34:40;;;;;;;42.93;23.00;;;;;;;0.54;100.00;94540.19;5049041;28;20302;-76
2022/03/08 08:37:09;;;;;;;42.23;22.47;;;;;;;0.49;100.00;94540.66;5050553;28;20206;-76
2022/03/08 08:39:38;;;;;;;42.23;22.87;;;;;;;0.50;100.00;94544.00;5049463;28;20669;-75
2022/03/08 08:42:06;;;;;;;42.43;23.00;;;;;;;0.48;100.00;94545.94;5049719;28;20207;-76
2022/03/08 08:44:34;;;;;;;46.23;24.43;;;;;;;0.28;100.00;94547.19;5050480;28;20275;-75
2022/03/08 08:47:03;;;;;;;44.20;23.23;;;;;;;0.20;100.00;94552.31;5051145;28;20248;-77
2022/03/08 08:49:32;;;;;;;48.20;25.27;;;;;;;0.13;100.00;94553.88;5051172;28;20209;-76
2022/03/08 08:52:02;;;;;;;48.67;24.67;;;;;;;0.05;100.00;94546.22;5049683;28;20202;-76
2022/03/08 08:54:30;;;;;;;41.13;21.90;;;;;;;-0.06;100.00;94550.63;5041214;28;20195;-76
2022/03/08 08:57:00;;;;;;;44.10;21.90;;;;;;;-0.06;100.00;94554.97;5051143;28;20209;-76
2022/03/08 08:59:29;;;;;;;39.87;22.03;;;;;;;-0.17;100.00;94562.91;5050040;28;20681;-76
2022/03/08 09:01:58;;;;;;;40.03;20.87;;;;;;;-0.27;100.00;94557.94;5050272;28;20646;-74
2022/03/08 09:04:25;;;;;;;43.53;23.07;;;;;;;-0.23;100.00;94559.22;5041681;28;20198;-75
2022/03/08 09:06:53;;;;;;;44.00;23.00;;;;;;;-0.29;100.00;94552.16;5049263;28;20678;-77
2022/03/08 09:09:21;;;;;;;42.93;22.23;;;;;;;-0.34;100.00;94551.03;5048019;28;20218;-77
2022/03/08 09:11:48;;;;;;;45.37;22.67;;;;;;;-0.39;100.00;94555.81;5048466;28;20487;-76
2022/03/08 09:14:18;;;;;;;44.97;24.10;;;;;;;-0.47;100.00;94558.34;5048893;28;20241;-75
2022/03/08 09:16:45;;;;;;;52.50;25.87;;;;;;;-0.55;100.00;94555.75;5048818;28;20341;-75
2022/03/08 09:19:13;;;;;;;47.37;25.40;;;;;;;-0.70;100.00;94553.78;5051254;28;20644;-78
2022/03/08 09:21:40;;;;;;;49.90;25.63;;;;;;;-0.78;100.00;94555.50;5051231;28;20217;-77
2022/03/08 09:24:09;;;;;;;51.93;27.33;;;;;;;-0.75;100.00;94557.75;5041155;28;20203;-77
2022/03/08 09:26:37;;;;;;;46.23;23.70;;;;;;;-0.58;100.00;94567.06;5046170;28;20198;-77
2022/03/08 09:29:04;;;;;;;51.27;25.30;;;;;;;-0.66;100.00;94565.25;5058655;28;20209;-78
2022/03/08 09:31:34;;;;;;;51.60;25.43;;;;;;;-0.58;100.00;94562.75;5055247;28;20202;-78
2022/03/08 09:34:01;;;;;;;44.57;22.23;;;;;;;-0.44;100.00;94560.59;5048615;28;20624;-76
2022/03/08 09:36:28;;;;;;;47.97;23.67;;;;;;;-0.41;100.00;94561.09;5050395;28;20241;-77
2022/03/08 09:38:55;;;;;;;53.00;25.37;;;;;;;-0.33;100.00;94558.56;5050416;28;20201;-78
2022/03/08 09:41:23;;;;;;;50.37;24.33;;;;;;;-0.22;100.00;94555.72;5050481;28;20576;-77
2022/03/08 09:43:52;;;;;;;47.73;25.50;;;;;;;-0.18;100.00;94556.22;5051024;28;20206;-79
2022/03/08 09:46:19;;;;;;;48.43;24.53;;;;;;;-0.21;100.00;94561.63;5051187;28;20191;-78
2022/03/08 09:48:50;;;;;;;50.30;25.57;;;;;;;-0.14;100.00;94560.03;5049962;28;20229;-79
2022/03/08 09:51:17;;;;;;;50.53;25.40;;;;;;;-0.04;100.00;94560.72;5049752;28;20754;-75
2022/03/08 09:53:45;;;;;;;50.47;27.20;;;;;;;-0.04;100.00;94568.38;5048023;28;20201;-75
2022/03/08 09:56:14;;;;;;;56.23;29.67;;;;;;;-0.07;100.00;94551.63;5049399;28;20232;-75
2022/03/08 09:58:42;;;;;;;53.10;27.53;;;;;;;0.00;100.00;94565.34;5049025;28;20214;-75
2022/03/08 10:01:09;;;;;;;55.10;27.03;;;;;;;0.17;100.00;94570.50;5048847;28;20293;-75
2022/03/08 10:03:39;;;;;;;49.20;24.77;;;;;;;0.16;100.00;94568.91;5047305;28;20208;-76
2022/03/08 10:06:10;;;;;;;54.50;28.00;;;;;;;0.21;100.00;94574.31;5047798;28;20228;-75
2022/03/08 10:08:38;;;;;;;40.23;21.13;;;;;;;-0.05;100.00;94570.13;5048802;28;20661;-74
2022/03/08 10:11:09;;;;;;;45.03;22.63;;;;;;;-0.17;100.00;94575.66;5051369;28;20267;-74
2022/03/08 10:13:42;;;;;;;46.67;23.13;;;;;;;-0.16;100.00;94564.50;5052678;28;20233;-74
2022/03/08 10:16:14;;;;;;;53.37;27.40;;;;;;;-0.03;100.00;94570.75;5052925;28;20221;-76
2022/03/08 10:18:45;;;;;;;48.43;22.93;;;;;;;0.05;100.00;94567.44;5052696;28;20688;-76
2022/03/08 10:21:32;;;;;;;51.87;24.50;;;;;;;-0.07;100.00;94568.69;5052366;28;20288;-75
2022/03/08 10:24:01;;;;;;;52.10;27.20;;;;;;;0.00;100.00;94569.69;5047723;28;20843;-75
2022/03/08 10:26:30;;;;;;;50.70;25.17;;;;;;;0.07;100.00;94570.63;5052614;28;20259;-75
2022/03/08 10:28:59;;;;;;;54.63;26.90;;;;;;;0.26;100.00;94569.56;5052756;28;20289;-75
2022/03/08 10:31:27;;;;;;;52.20;26.83;;;;;;;0.45;100.00;94556.47;5053413;28;20594;-75
2022/03/08 10:34:04;;;;;;;47.77;24.57;;;;;;;0.55;100.00;94569.88;5052000;28;20321;-75
2022/03/08 10:36:37;;;;;;;54.00;26.57;;;;;;;0.35;100.00;94566.84;5051961;28;20209;-75
2022/03/08 10:39:22;;;;;;;46.90;24.97;;;;;;;0.24;100.00;94566.34;5052499;28;20202;-75
2022/03/08 10:41:53;;;;;;;48.83;24.17;;;;;;;0.34;100.00;94569.56;5052419;28;20252;-75
2022/03/08 10:44:33;;;;;;;44.67;22.70;;;;;;;0.41;100.00;94575.63;5052847;28;20236;-75
2022/03/08 10:47:08;;;;;;;46.27;21.80;;;;;;;0.42;100.00;94560.16;5053272;28;20216;-75
2022/03/08 10:49:37;;;;;;;45.67;23.23;;;;;;;0.22;100.00;94560.59;5052296;28;20661;-74
2022/03/08 10:52:08;;;;;;;47.87;25.50;;;;;;;0.24;100.00;94556.94;5052217;28;20677;-75
2022/03/08 10:54:36;;;;;;;42.97;22.83;;;;;;;0.14;100.00;94558.84;5051831;28;21210;-74
2022/03/08 10:57:05;;;;;;;42.40;23.23;;;;;;;0.30;100.00;94566.53;5052795;28;20747;-74
2022/03/08 10:59:32;;;;;;;45.27;24.40;;;;;;;0.49;100.00;94557.78;5051738;28;20202;-75
2022/03/08 11:02:20;;;;;;;42.10;23.03;;;;;;;0.52;100.00;94567.66;5052177;28;20276;-74
2022/03/08 11:04:48;;;;;;;43.40;23.20;;;;;;;0.64;100.00;94568.94;5052551;28;20205;-76
2022/03/08 11:07:18;;;;;;;41.10;21.67;;;;;;;0.61;99.11;94566.69;5050681;28;20198;-73
2022/03/08 11:09:48;;;;;;;46.10;22.93;;;;;;;0.55;99.00;94568.13;5048773;28;20241;-73
2022/03/08 11:12:15;;;;;;;46.40;24.20;;;;;;;0.83;99.92;94565.28;5047311;28;20198;-73
2022/03/08 11:14:43;;;;;;;49.27;25.00;;;;;;;1.13;99.42;94567.94;5050813;28;20234;-74
2022/03/08 11:17:11;;;;;;;50.00;28.37;;;;;;;1.49;98.21;94568.34;5050643;28;20328;-74
2022/03/08 11:19:41;;;;;;;57.70;29.40;;;;;;;1.80;96.76;94570.94;5050641;28;20198;-73
2022/03/08 11:22:10;;;;;;;44.83;22.73;;;;;;;1.85;93.68;94585.84;5047297;28;20205;-73